sensor_id;sensor_type;location;lat;lon;timestamp;P1;durP1;ratioP1;P2;durP2;ratioP2
41253;SDS011;26987;59.928;30.306;2022-12-20T00:00:50;21.30;;;9.82;;
41253;SDS011;26987;59.928;30.306;2022-12-20T00:03:18;21.55;;;9.43;;
41253;SDS011;26987;59.928;30.306;2022-12-20T00:05:46;20.77;;;9.90;;
41253;SDS011;26987;59.928;30.306;2022-12-20T00:08:14;27.23;;;10.48;;
41253;SDS011;26987;59.928;30.306;2022-12-20T00:10:43;21.05;;;10.00;;
41253;SDS011;26987;59.928;30.306;2022-12-20T00:13:12;25.25;;;10.63;;
41253;SDS011;26987;59.928;30.306;2022-12-20T00:15:41;22.27;;;9.95;;
41253;SDS011;26987;59.928;30.306;2022-12-20T00:18:09;25.13;;;11.15;;
41253;SDS011;26987;59.928;30.306;2022-12-20T00:20:37;19.77;;;9.40;;
41253;SDS011;26987;59.928;30.306;2022-12-20T00:23:05;19.63;;;8.98;;
41253;SDS011;26987;59.928;30.306;2022-12-20T00:25:32;22.63;;;8.88;;
41253;SDS011;26987;59.928;30.306;2022-12-20T00:28:00;17.05;;;8.63;;
41253;SDS011;26987;59.928;30.306;2022-12-20T00:30:29;27.83;;;10.75;;
41253;SDS011;26987;59.928;30.306;2022-12-20T00:32:58;18.02;;;8.13;;
41253;SDS011;26987;59.928;30.306;2022-12-20T00:35:26;18.58;;;7.75;;
41253;SDS011;26987;59.928;30.306;2022-12-20T00:37:53;19.00;;;7.75;;
41253;SDS011;26987;59.928;30.306;2022-12-20T00:40:21;15.20;;;6.75;;
41253;SDS011;26987;59.928;30.306;2022-12-20T00:42:48;16.83;;;6.68;;
41253;SDS011;26987;59.928;30.306;2022-12-20T00:45:16;17.50;;;7.47;;
41253;SDS011;26987;59.928;30.306;2022-12-20T00:47:44;15.20;;;6.80;;
41253;SDS011;26987;59.928;30.306;2022-12-20T00:50:13;16.08;;;7.38;;
41253;SDS011;26987;59.928;30.306;2022-12-20T00:52:41;17.23;;;7.75;;
41253;SDS011;26987;59.928;30.306;2022-12-20T00:55:08;16.67;;;7.38;;
41253;SDS011;26987;59.928;30.306;2022-12-20T00:57:36;17.55;;;7.78;;
41253;SDS011;26987;59.928;30.306;2022-12-20T01:00:04;16.33;;;7.15;;
41253;SDS011;26987;59.928;30.306;2022-12-20T01:02:33;16.15;;;8.25;;
41253;SDS011;26987;59.928;30.306;2022-12-20T01:05:00;19.55;;;8.15;;
41253;SDS011;26987;59.928;30.306;2022-12-20T01:07:31;20.05;;;8.18;;
41253;SDS011;26987;59.928;30.306;2022-12-20T01:09:59;19.63;;;7.72;;
41253;SDS011;26987;59.928;30.306;2022-12-20T01:12:28;19.92;;;7.88;;
41253;SDS011;26987;59.928;30.306;2022-12-20T01:14:56;19.45;;;8.38;;
41253;SDS011;26987;59.928;30.306;2022-12-20T01:17:23;16.42;;;8.07;;
41253;SDS011;26987;59.928;30.306;2022-12-20T01:19:51;19.80;;;8.35;;
41253;SDS011;26987;59.928;30.306;2022-12-20T01:22:19;19.30;;;7.93;;
41253;SDS011;26987;59.928;30.306;2022-12-20T01:24:48;18.25;;;7.28;;
41253;SDS011;26987;59.928;30.306;2022-12-20T01:27:16;18.83;;;8.13;;
41253;SDS011;26987;59.928;30.306;2022-12-20T01:29:43;18.70;;;7.90;;
41253;SDS011;26987;59.928;30.306;2022-12-20T01:32:11;17.75;;;7.93;;
41253;SDS011;26987;59.928;30.306;2022-12-20T01:34:39;19.77;;;8.50;;
41253;SDS011;26987;59.928;30.306;2022-12-20T01:37:07;16.67;;;8.30;;
41253;SDS011;26987;59.928;30.306;2022-12-20T01:39:35;19.48;;;8.35;;
41253;SDS011;26987;59.928;30.306;2022-12-20T01:42:04;25.70;;;8.98;;
41253;SDS011;26987;59.928;30.306;2022-12-20T01:44:54;22.52;;;8.52;;
41253;SDS011;26987;59.928;30.306;2022-12-20T01:47:25;23.67;;;9.18;;
41253;SDS011;26987;59.928;30.306;2022-12-20T01:49:54;26.10;;;10.05;;
41253;SDS011;26987;59.928;30.306;2022-12-20T01:52:27;24.67;;;8.98;;
41253;SDS011;26987;59.928;30.306;2022-12-20T01:55:00;26.35;;;9.52;;
41253;SDS011;26987;59.928;30.306;2022-12-20T01:57:33;25.10;;;9.25;;
41253;SDS011;26987;59.928;30.306;2022-12-20T02:00:06;23.55;;;9.02;;
41253;SDS011;26987;59.928;30.306;2022-12-20T02:02:42;15.30;;;7.78;;
41253;SDS011;26987;59.928;30.306;2022-12-20T02:05:11;20.80;;;8.40;;
41253;SDS011;26987;59.928;30.306;2022-12-20T02:07:39;23.05;;;8.13;;
41253;SDS011;26987;59.928;30.306;2022-12-20T02:10:10;18.98;;;7.90;;
41253;SDS011;26987;59.928;30.306;2022-12-20T02:12:41;21.30;;;9.13;;
41253;SDS011;26987;59.928;30.306;2022-12-20T02:15:14;23.52;;;7.70;;
41253;SDS011;26987;59.928;30.306;2022-12-20T02:18:14;18.52;;;8.63;;
41253;SDS011;26987;59.928;30.306;2022-12-20T02:27:00;25.02;;;7.85;;
41253;SDS011;26987;59.928;30.306;2022-12-20T02:32:38;22.97;;;8.30;;
41253;SDS011;26987;59.928;30.306;2022-12-20T02:35:11;23.20;;;8.98;;
41253;SDS011;26987;59.928;30.306;2022-12-20T02:37:48;19.88;;;8.27;;
41253;SDS011;26987;59.928;30.306;2022-12-20T02:40:18;22.52;;;8.25;;
41253;SDS011;26987;59.928;30.306;2022-12-20T02:42:48;25.63;;;8.73;;
41253;SDS011;26987;59.928;30.306;2022-12-20T02:45:20;18.83;;;7.90;;
41253;SDS011;26987;59.928;30.306;2022-12-20T02:47:51;19.65;;;8.02;;
41253;SDS011;26987;59.928;30.306;2022-12-20T02:50:24;20.38;;;8.35;;
41253;SDS011;26987;59.928;30.306;2022-12-20T02:52:55;22.55;;;9.13;;
41253;SDS011;26987;59.928;30.306;2022-12-20T02:55:27;24.02;;;9.52;;
41253;SDS011;26987;59.928;30.306;2022-12-20T02:58:01;24.15;;;9.52;;
41253;SDS011;26987;59.928;30.306;2022-12-20T03:00:37;26.45;;;10.55;;
41253;SDS011;26987;59.928;30.306;2022-12-20T03:03:09;24.80;;;10.13;;
41253;SDS011;26987;59.928;30.306;2022-12-20T03:05:50;21.75;;;8.90;;
41253;SDS011;26987;59.928;30.306;2022-12-20T03:08:20;21.77;;;10.02;;
41253;SDS011;26987;59.928;30.306;2022-12-20T03:10:49;24.45;;;9.65;;
41253;SDS011;26987;59.928;30.306;2022-12-20T03:13:19;24.35;;;9.85;;
41253;SDS011;26987;59.928;30.306;2022-12-20T03:15:55;24.83;;;9.55;;
41253;SDS011;26987;59.928;30.306;2022-12-20T03:18:22;22.33;;;9.70;;
41253;SDS011;26987;59.928;30.306;2022-12-20T03:20:50;27.77;;;10.48;;
41253;SDS011;26987;59.928;30.306;2022-12-20T03:23:18;22.77;;;9.68;;
41253;SDS011;26987;59.928;30.306;2022-12-20T03:25:47;23.00;;;9.88;;
41253;SDS011;26987;59.928;30.306;2022-12-20T03:28:23;26.63;;;10.45;;
41253;SDS011;26987;59.928;30.306;2022-12-20T03:30:51;25.77;;;10.50;;
41253;SDS011;26987;59.928;30.306;2022-12-20T03:33:21;27.55;;;10.15;;
41253;SDS011;26987;59.928;30.306;2022-12-20T03:35:48;24.85;;;9.65;;
41253;SDS011;26987;59.928;30.306;2022-12-20T03:38:17;28.92;;;10.70;;
41253;SDS011;26987;59.928;30.306;2022-12-20T03:40:45;30.50;;;10.93;;
41253;SDS011;26987;59.928;30.306;2022-12-20T03:43:17;26.33;;;11.57;;
41253;SDS011;26987;59.928;30.306;2022-12-20T03:45:45;29.63;;;12.43;;
41253;SDS011;26987;59.928;30.306;2022-12-20T03:48:13;34.05;;;13.57;;
41253;SDS011;26987;59.928;30.306;2022-12-20T03:50:42;26.45;;;11.70;;
41253;SDS011;26987;59.928;30.306;2022-12-20T03:53:10;31.80;;;11.07;;
41253;SDS011;26987;59.928;30.306;2022-12-20T03:55:38;31.40;;;11.65;;
41253;SDS011;26987;59.928;30.306;2022-12-20T03:58:07;28.63;;;10.18;;
41253;SDS011;26987;59.928;30.306;2022-12-20T04:00:38;27.95;;;10.52;;
41253;SDS011;26987;59.928;30.306;2022-12-20T04:03:31;27.13;;;10.95;;
41253;SDS011;26987;59.928;30.306;2022-12-20T04:06:00;26.02;;;9.88;;
41253;SDS011;26987;59.928;30.306;2022-12-20T04:08:27;25.17;;;10.75;;
41253;SDS011;26987;59.928;30.306;2022-12-20T04:10:55;28.83;;;10.75;;
41253;SDS011;26987;59.928;30.306;2022-12-20T04:13:45;29.63;;;11.38;;
41253;SDS011;26987;59.928;30.306;2022-12-20T04:16:15;23.48;;;10.20;;
41253;SDS011;26987;59.928;30.306;2022-12-20T04:18:44;30.77;;;11.40;;
41253;SDS011;26987;59.928;30.306;2022-12-20T04:21:14;29.20;;;11.38;;
41253;SDS011;26987;59.928;30.306;2022-12-20T04:23:47;27.30;;;11.20;;
41253;SDS011;26987;59.928;30.306;2022-12-20T04:26:16;32.03;;;11.68;;
41253;SDS011;26987;59.928;30.306;2022-12-20T04:28:45;28.55;;;12.07;;
41253;SDS011;26987;59.928;30.306;2022-12-20T04:31:12;30.80;;;11.75;;
41253;SDS011;26987;59.928;30.306;2022-12-20T04:33:40;27.05;;;11.43;;
41253;SDS011;26987;59.928;30.306;2022-12-20T04:36:08;27.27;;;11.35;;
41253;SDS011;26987;59.928;30.306;2022-12-20T04:38:40;28.55;;;12.18;;
41253;SDS011;26987;59.928;30.306;2022-12-20T04:41:08;28.60;;;12.23;;
41253;SDS011;26987;59.928;30.306;2022-12-20T04:43:48;28.20;;;10.60;;
41253;SDS011;26987;59.928;30.306;2022-12-20T04:46:18;28.73;;;11.63;;
41253;SDS011;26987;59.928;30.306;2022-12-20T04:48:47;27.83;;;11.00;;
41253;SDS011;26987;59.928;30.306;2022-12-20T04:51:15;29.40;;;12.48;;
41253;SDS011;26987;59.928;30.306;2022-12-20T04:53:45;28.08;;;10.95;;
41253;SDS011;26987;59.928;30.306;2022-12-20T04:56:46;27.10;;;10.32;;
41253;SDS011;26987;59.928;30.306;2022-12-20T04:59:19;26.25;;;9.85;;
41253;SDS011;26987;59.928;30.306;2022-12-20T05:01:50;26.48;;;9.93;;
41253;SDS011;26987;59.928;30.306;2022-12-20T05:04:37;25.83;;;10.80;;
41253;SDS011;26987;59.928;30.306;2022-12-20T05:07:05;32.47;;;11.18;;
41253;SDS011;26987;59.928;30.306;2022-12-20T05:09:36;26.13;;;10.30;;
41253;SDS011;26987;59.928;30.306;2022-12-20T05:12:04;25.17;;;9.85;;
41253;SDS011;26987;59.928;30.306;2022-12-20T05:14:33;28.77;;;11.43;;
41253;SDS011;26987;59.928;30.306;2022-12-20T05:17:01;27.13;;;10.85;;
41253;SDS011;26987;59.928;30.306;2022-12-20T05:19:30;26.50;;;10.57;;
41253;SDS011;26987;59.928;30.306;2022-12-20T05:21:59;27.17;;;11.63;;
41253;SDS011;26987;59.928;30.306;2022-12-20T05:25:00;27.55;;;11.60;;
41253;SDS011;26987;59.928;30.306;2022-12-20T05:27:47;29.77;;;11.00;;
41253;SDS011;26987;59.928;30.306;2022-12-20T05:30:15;27.98;;;10.80;;
41253;SDS011;26987;59.928;30.306;2022-12-20T05:32:44;30.77;;;10.93;;
41253;SDS011;26987;59.928;30.306;2022-12-20T05:35:12;30.00;;;12.07;;
41253;SDS011;26987;59.928;30.306;2022-12-20T05:37:40;30.25;;;11.13;;
41253;SDS011;26987;59.928;30.306;2022-12-20T05:40:16;28.92;;;11.77;;
41253;SDS011;26987;59.928;30.306;2022-12-20T05:42:44;33.13;;;13.50;;
41253;SDS011;26987;59.928;30.306;2022-12-20T05:45:13;36.80;;;13.27;;
41253;SDS011;26987;59.928;30.306;2022-12-20T05:47:49;34.15;;;13.43;;
41253;SDS011;26987;59.928;30.306;2022-12-20T05:50:17;34.00;;;12.68;;
41253;SDS011;26987;59.928;30.306;2022-12-20T05:53:12;31.50;;;11.63;;
41253;SDS011;26987;59.928;30.306;2022-12-20T05:55:48;33.80;;;12.85;;
41253;SDS011;26987;59.928;30.306;2022-12-20T05:58:18;31.15;;;11.43;;
41253;SDS011;26987;59.928;30.306;2022-12-20T06:00:52;30.30;;;11.23;;
41253;SDS011;26987;59.928;30.306;2022-12-20T06:03:21;25.85;;;10.55;;
41253;SDS011;26987;59.928;30.306;2022-12-20T06:05:50;28.00;;;10.98;;
41253;SDS011;26987;59.928;30.306;2022-12-20T06:08:25;23.73;;;9.30;;
41253;SDS011;26987;59.928;30.306;2022-12-20T06:10:55;31.73;;;12.25;;
41253;SDS011;26987;59.928;30.306;2022-12-20T06:13:23;34.47;;;13.30;;
41253;SDS011;26987;59.928;30.306;2022-12-20T06:15:53;34.13;;;11.95;;
41253;SDS011;26987;59.928;30.306;2022-12-20T06:18:21;30.55;;;11.75;;
41253;SDS011;26987;59.928;30.306;2022-12-20T06:20:52;28.55;;;10.93;;
41253;SDS011;26987;59.928;30.306;2022-12-20T06:23:22;30.67;;;11.25;;
41253;SDS011;26987;59.928;30.306;2022-12-20T06:26:04;32.97;;;13.13;;
41253;SDS011;26987;59.928;30.306;2022-12-20T06:28:37;33.97;;;12.55;;
41253;SDS011;26987;59.928;30.306;2022-12-20T06:31:09;36.63;;;12.65;;
41253;SDS011;26987;59.928;30.306;2022-12-20T06:33:41;29.00;;;11.90;;
41253;SDS011;26987;59.928;30.306;2022-12-20T06:36:09;32.03;;;11.45;;
41253;SDS011;26987;59.928;30.306;2022-12-20T06:38:37;32.55;;;11.27;;
41253;SDS011;26987;59.928;30.306;2022-12-20T06:41:06;33.00;;;12.75;;
41253;SDS011;26987;59.928;30.306;2022-12-20T06:43:34;37.70;;;12.73;;
41253;SDS011;26987;59.928;30.306;2022-12-20T06:46:02;28.75;;;10.93;;
41253;SDS011;26987;59.928;30.306;2022-12-20T06:48:29;26.65;;;11.32;;
41253;SDS011;26987;59.928;30.306;2022-12-20T06:50:58;28.00;;;11.10;;
41253;SDS011;26987;59.928;30.306;2022-12-20T06:53:27;28.80;;;11.02;;
41253;SDS011;26987;59.928;30.306;2022-12-20T06:55:54;30.13;;;11.32;;
41253;SDS011;26987;59.928;30.306;2022-12-20T06:58:23;34.65;;;12.32;;
41253;SDS011;26987;59.928;30.306;2022-12-20T07:00:51;28.30;;;10.57;;
41253;SDS011;26987;59.928;30.306;2022-12-20T07:03:21;34.63;;;12.68;;
41253;SDS011;26987;59.928;30.306;2022-12-20T07:05:50;35.20;;;12.80;;
41253;SDS011;26987;59.928;30.306;2022-12-20T07:08:19;29.92;;;12.10;;
41253;SDS011;26987;59.928;30.306;2022-12-20T07:10:47;35.92;;;11.85;;
41253;SDS011;26987;59.928;30.306;2022-12-20T07:13:17;37.50;;;12.13;;
41253;SDS011;26987;59.928;30.306;2022-12-20T07:15:46;31.35;;;11.57;;
41253;SDS011;26987;59.928;30.306;2022-12-20T07:18:14;39.17;;;12.60;;
41253;SDS011;26987;59.928;30.306;2022-12-20T07:20:42;34.10;;;11.82;;
41253;SDS011;26987;59.928;30.306;2022-12-20T07:23:09;37.15;;;12.60;;
41253;SDS011;26987;59.928;30.306;2022-12-20T07:25:37;34.17;;;11.82;;
41253;SDS011;26987;59.928;30.306;2022-12-20T07:28:05;39.63;;;13.70;;
41253;SDS011;26987;59.928;30.306;2022-12-20T07:30:32;28.58;;;10.77;;
41253;SDS011;26987;59.928;30.306;2022-12-20T07:33:01;34.42;;;13.25;;
41253;SDS011;26987;59.928;30.306;2022-12-20T07:35:29;40.75;;;12.93;;
41253;SDS011;26987;59.928;30.306;2022-12-20T07:37:57;36.97;;;13.40;;
41253;SDS011;26987;59.928;30.306;2022-12-20T07:40:24;34.33;;;12.27;;
41253;SDS011;26987;59.928;30.306;2022-12-20T07:42:52;32.70;;;11.90;;
41253;SDS011;26987;59.928;30.306;2022-12-20T07:45:20;30.70;;;11.60;;
41253;SDS011;26987;59.928;30.306;2022-12-20T07:47:47;31.20;;;11.82;;
41253;SDS011;26987;59.928;30.306;2022-12-20T07:50:17;31.77;;;11.43;;
41253;SDS011;26987;59.928;30.306;2022-12-20T07:52:44;36.83;;;12.88;;
41253;SDS011;26987;59.928;30.306;2022-12-20T07:55:14;29.42;;;11.70;;
41253;SDS011;26987;59.928;30.306;2022-12-20T07:57:43;36.97;;;13.20;;
41253;SDS011;26987;59.928;30.306;2022-12-20T08:00:15;34.60;;;12.13;;
41253;SDS011;26987;59.928;30.306;2022-12-20T08:02:46;33.08;;;12.93;;
41253;SDS011;26987;59.928;30.306;2022-12-20T08:05:20;31.67;;;12.55;;
41253;SDS011;26987;59.928;30.306;2022-12-20T08:07:49;30.63;;;11.45;;
41253;SDS011;26987;59.928;30.306;2022-12-20T08:10:17;31.63;;;12.02;;
41253;SDS011;26987;59.928;30.306;2022-12-20T08:12:45;34.97;;;11.65;;
41253;SDS011;26987;59.928;30.306;2022-12-20T08:15:14;29.75;;;11.23;;
41253;SDS011;26987;59.928;30.306;2022-12-20T08:17:42;30.17;;;11.82;;
41253;SDS011;26987;59.928;30.306;2022-12-20T08:20:10;34.45;;;12.25;;
41253;SDS011;26987;59.928;30.306;2022-12-20T08:22:40;31.45;;;11.55;;
41253;SDS011;26987;59.928;30.306;2022-12-20T08:25:08;34.80;;;12.40;;
41253;SDS011;26987;59.928;30.306;2022-12-20T08:27:36;30.15;;;11.57;;
41253;SDS011;26987;59.928;30.306;2022-12-20T08:30:05;34.53;;;12.40;;
41253;SDS011;26987;59.928;30.306;2022-12-20T08:32:35;30.40;;;11.55;;
41253;SDS011;26987;59.928;30.306;2022-12-20T08:35:04;37.28;;;12.38;;
41253;SDS011;26987;59.928;30.306;2022-12-20T08:37:33;33.03;;;12.25;;
41253;SDS011;26987;59.928;30.306;2022-12-20T08:40:02;38.00;;;12.60;;
41253;SDS011;26987;59.928;30.306;2022-12-20T08:42:32;40.22;;;12.90;;
41253;SDS011;26987;59.928;30.306;2022-12-20T08:45:00;32.90;;;11.30;;
41253;SDS011;26987;59.928;30.306;2022-12-20T08:47:27;31.35;;;12.45;;
41253;SDS011;26987;59.928;30.306;2022-12-20T08:49:56;32.88;;;11.57;;
41253;SDS011;26987;59.928;30.306;2022-12-20T08:52:23;36.65;;;12.13;;
41253;SDS011;26987;59.928;30.306;2022-12-20T08:54:51;36.83;;;11.98;;
41253;SDS011;26987;59.928;30.306;2022-12-20T08:57:20;39.15;;;11.90;;
41253;SDS011;26987;59.928;30.306;2022-12-20T08:59:48;32.88;;;12.00;;
41253;SDS011;26987;59.928;30.306;2022-12-20T09:02:15;35.05;;;11.82;;
41253;SDS011;26987;59.928;30.306;2022-12-20T09:04:43;33.95;;;11.57;;
41253;SDS011;26987;59.928;30.306;2022-12-20T09:07:11;28.75;;;11.05;;
41253;SDS011;26987;59.928;30.306;2022-12-20T09:09:38;35.38;;;13.35;;
41253;SDS011;26987;59.928;30.306;2022-12-20T09:12:06;33.70;;;11.25;;
41253;SDS011;26987;59.928;30.306;2022-12-20T09:14:35;32.80;;;12.10;;
41253;SDS011;26987;59.928;30.306;2022-12-20T09:17:04;35.88;;;11.70;;
41253;SDS011;26987;59.928;30.306;2022-12-20T09:19:31;28.55;;;12.23;;
41253;SDS011;26987;59.928;30.306;2022-12-20T09:21:59;31.75;;;11.80;;
41253;SDS011;26987;59.928;30.306;2022-12-20T09:24:27;34.53;;;12.73;;
41253;SDS011;26987;59.928;30.306;2022-12-20T09:26:54;33.63;;;12.18;;
41253;SDS011;26987;59.928;30.306;2022-12-20T09:29:22;35.08;;;12.52;;
41253;SDS011;26987;59.928;30.306;2022-12-20T09:31:51;28.75;;;11.32;;
41253;SDS011;26987;59.928;30.306;2022-12-20T09:34:19;33.72;;;12.35;;
41253;SDS011;26987;59.928;30.306;2022-12-20T09:36:46;33.40;;;12.43;;
41253;SDS011;26987;59.928;30.306;2022-12-20T09:39:14;34.22;;;13.70;;
41253;SDS011;26987;59.928;30.306;2022-12-20T09:41:42;34.20;;;11.45;;
41253;SDS011;26987;59.928;30.306;2022-12-20T09:44:11;32.70;;;11.45;;
41253;SDS011;26987;59.928;30.306;2022-12-20T09:46:42;30.67;;;11.18;;
41253;SDS011;26987;59.928;30.306;2022-12-20T09:49:14;35.50;;;13.32;;
41253;SDS011;26987;59.928;30.306;2022-12-20T09:54:56;32.97;;;11.10;;
41253;SDS011;26987;59.928;30.306;2022-12-20T09:57:39;27.40;;;10.43;;
41253;SDS011;26987;59.928;30.306;2022-12-20T10:00:19;30.27;;;11.68;;
41253;SDS011;26987;59.928;30.306;2022-12-20T10:02:48;25.17;;;10.02;;
41253;SDS011;26987;59.928;30.306;2022-12-20T10:05:19;29.73;;;11.57;;
41253;SDS011;26987;59.928;30.306;2022-12-20T10:10:29;30.85;;;10.57;;
41253;SDS011;26987;59.928;30.306;2022-12-20T10:13:10;26.90;;;10.27;;
41253;SDS011;26987;59.928;30.306;2022-12-20T10:15:48;24.92;;;9.95;;
41253;SDS011;26987;59.928;30.306;2022-12-20T10:18:23;27.75;;;10.52;;
41253;SDS011;26987;59.928;30.306;2022-12-20T10:21:05;28.15;;;10.98;;
41253;SDS011;26987;59.928;30.306;2022-12-20T10:23:39;32.33;;;11.00;;
41253;SDS011;26987;59.928;30.306;2022-12-20T10:26:12;34.80;;;11.02;;
41253;SDS011;26987;59.928;30.306;2022-12-20T10:28:40;30.02;;;11.75;;
41253;SDS011;26987;59.928;30.306;2022-12-20T10:31:11;33.17;;;11.75;;
41253;SDS011;26987;59.928;30.306;2022-12-20T10:33:41;36.30;;;10.57;;
41253;SDS011;26987;59.928;30.306;2022-12-20T10:36:24;33.63;;;9.77;;
41253;SDS011;26987;59.928;30.306;2022-12-20T10:38:54;23.45;;;9.90;;
41253;SDS011;26987;59.928;30.306;2022-12-20T10:41:24;28.30;;;10.25;;
41253;SDS011;26987;59.928;30.306;2022-12-20T10:43:54;33.30;;;10.57;;
41253;SDS011;26987;59.928;30.306;2022-12-20T10:46:33;31.58;;;11.60;;
41253;SDS011;26987;59.928;30.306;2022-12-20T10:49:25;27.73;;;10.23;;
41253;SDS011;26987;59.928;30.306;2022-12-20T10:51:58;26.08;;;10.15;;
41253;SDS011;26987;59.928;30.306;2022-12-20T10:54:28;30.02;;;10.45;;
41253;SDS011;26987;59.928;30.306;2022-12-20T10:56:59;24.25;;;9.80;;
41253;SDS011;26987;59.928;30.306;2022-12-20T10:59:30;28.33;;;9.65;;
41253;SDS011;26987;59.928;30.306;2022-12-20T11:02:01;26.63;;;10.57;;
41253;SDS011;26987;59.928;30.306;2022-12-20T11:04:55;29.00;;;11.10;;
41253;SDS011;26987;59.928;30.306;2022-12-20T11:07:27;32.97;;;11.45;;
41253;SDS011;26987;59.928;30.306;2022-12-20T11:09:57;28.13;;;11.65;;
41253;SDS011;26987;59.928;30.306;2022-12-20T11:12:26;31.00;;;10.55;;
41253;SDS011;26987;59.928;30.306;2022-12-20T11:15:06;31.45;;;11.55;;
41253;SDS011;26987;59.928;30.306;2022-12-20T11:17:36;32.22;;;11.65;;
41253;SDS011;26987;59.928;30.306;2022-12-20T11:23:12;30.35;;;10.68;;
41253;SDS011;26987;59.928;30.306;2022-12-20T11:25:57;29.38;;;10.75;;
41253;SDS011;26987;59.928;30.306;2022-12-20T11:28:41;30.58;;;11.82;;
41253;SDS011;26987;59.928;30.306;2022-12-20T11:31:18;33.78;;;11.40;;
41253;SDS011;26987;59.928;30.306;2022-12-20T11:33:54;27.80;;;11.63;;
41253;SDS011;26987;59.928;30.306;2022-12-20T11:36:32;30.35;;;12.23;;
41253;SDS011;26987;59.928;30.306;2022-12-20T11:39:17;32.95;;;11.25;;
41253;SDS011;26987;59.928;30.306;2022-12-20T11:41:54;28.77;;;10.57;;
41253;SDS011;26987;59.928;30.306;2022-12-20T11:44:31;32.25;;;10.80;;
41253;SDS011;26987;59.928;30.306;2022-12-20T11:47:20;27.98;;;10.10;;
41253;SDS011;26987;59.928;30.306;2022-12-20T11:50:03;26.98;;;10.43;;
41253;SDS011;26987;59.928;30.306;2022-12-20T11:52:45;27.70;;;10.07;;
41253;SDS011;26987;59.928;30.306;2022-12-20T11:55:19;25.77;;;10.35;;
41253;SDS011;26987;59.928;30.306;2022-12-20T11:57:53;34.60;;;12.05;;
41253;SDS011;26987;59.928;30.306;2022-12-20T12:00:26;35.13;;;12.00;;
41253;SDS011;26987;59.928;30.306;2022-12-20T12:02:56;27.55;;;11.40;;
41253;SDS011;26987;59.928;30.306;2022-12-20T12:05:28;27.60;;;10.50;;
41253;SDS011;26987;59.928;30.306;2022-12-20T12:08:08;31.73;;;11.02;;
41253;SDS011;26987;59.928;30.306;2022-12-20T12:10:43;24.50;;;9.10;;
41253;SDS011;26987;59.928;30.306;2022-12-20T12:13:17;30.63;;;11.15;;
41253;SDS011;26987;59.928;30.306;2022-12-20T12:15:53;33.05;;;11.27;;
41253;SDS011;26987;59.928;30.306;2022-12-20T12:18:26;27.92;;;10.80;;
41253;SDS011;26987;59.928;30.306;2022-12-20T12:20:58;27.55;;;9.93;;
41253;SDS011;26987;59.928;30.306;2022-12-20T12:23:35;32.45;;;10.73;;
41253;SDS011;26987;59.928;30.306;2022-12-20T12:28:48;25.90;;;9.82;;
41253;SDS011;26987;59.928;30.306;2022-12-20T12:31:21;28.27;;;8.98;;
41253;SDS011;26987;59.928;30.306;2022-12-20T12:33:58;25.58;;;9.73;;
41253;SDS011;26987;59.928;30.306;2022-12-20T12:36:49;32.92;;;10.60;;
41253;SDS011;26987;59.928;30.306;2022-12-20T12:45:39;28.63;;;11.05;;
41253;SDS011;26987;59.928;30.306;2022-12-20T12:48:12;38.05;;;11.18;;
41253;SDS011;26987;59.928;30.306;2022-12-20T12:50:46;26.50;;;10.07;;
41253;SDS011;26987;59.928;30.306;2022-12-20T12:53:17;26.13;;;10.82;;
41253;SDS011;26987;59.928;30.306;2022-12-20T12:55:48;25.77;;;10.35;;
41253;SDS011;26987;59.928;30.306;2022-12-20T13:04:21;28.83;;;10.02;;
41253;SDS011;26987;59.928;30.306;2022-12-20T13:06:56;23.52;;;9.07;;
41253;SDS011;26987;59.928;30.306;2022-12-20T13:09:50;28.63;;;10.27;;
41253;SDS011;26987;59.928;30.306;2022-12-20T13:18:21;26.13;;;10.18;;
41253;SDS011;26987;59.928;30.306;2022-12-20T13:27:15;26.75;;;9.38;;
41253;SDS011;26987;59.928;30.306;2022-12-20T13:29:58;22.60;;;9.45;;
41253;SDS011;26987;59.928;30.306;2022-12-20T13:38:58;24.00;;;8.73;;
41253;SDS011;26987;59.928;30.306;2022-12-20T13:41:34;23.73;;;8.82;;
41253;SDS011;26987;59.928;30.306;2022-12-20T13:44:09;18.02;;;7.97;;
41253;SDS011;26987;59.928;30.306;2022-12-20T13:46:53;27.50;;;9.03;;
41253;SDS011;26987;59.928;30.306;2022-12-20T13:49:25;22.75;;;8.65;;
41253;SDS011;26987;59.928;30.306;2022-12-20T13:52:11;24.17;;;8.57;;
41253;SDS011;26987;59.928;30.306;2022-12-20T13:54:48;24.08;;;8.82;;
41253;SDS011;26987;59.928;30.306;2022-12-20T13:57:20;26.70;;;8.60;;
41253;SDS011;26987;59.928;30.306;2022-12-20T13:59:55;22.00;;;8.00;;
41253;SDS011;26987;59.928;30.306;2022-12-20T14:02:26;23.87;;;8.50;;
41253;SDS011;26987;59.928;30.306;2022-12-20T14:04:57;25.07;;;8.73;;
41253;SDS011;26987;59.928;30.306;2022-12-20T14:07:28;22.50;;;8.63;;
41253;SDS011;26987;59.928;30.306;2022-12-20T14:10:00;24.33;;;7.63;;
41253;SDS011;26987;59.928;30.306;2022-12-20T14:12:29;20.73;;;8.27;;
41253;SDS011;26987;59.928;30.306;2022-12-20T14:14:57;23.10;;;8.87;;
41253;SDS011;26987;59.928;30.306;2022-12-20T14:17:25;24.27;;;7.93;;
41253;SDS011;26987;59.928;30.306;2022-12-20T14:22:51;21.27;;;8.50;;
41253;SDS011;26987;59.928;30.306;2022-12-20T14:25:27;19.77;;;7.33;;
41253;SDS011;26987;59.928;30.306;2022-12-20T14:27:58;19.73;;;7.47;;
41253;SDS011;26987;59.928;30.306;2022-12-20T14:30:27;19.87;;;7.50;;
41253;SDS011;26987;59.928;30.306;2022-12-20T14:32:57;23.67;;;9.17;;
41253;SDS011;26987;59.928;30.306;2022-12-20T14:35:26;20.33;;;7.83;;
41253;SDS011;26987;59.928;30.306;2022-12-20T14:37:56;20.07;;;7.33;;
41253;SDS011;26987;59.928;30.306;2022-12-20T14:40:25;26.40;;;9.40;;
41253;SDS011;26987;59.928;30.306;2022-12-20T14:42:55;23.27;;;7.83;;
41253;SDS011;26987;59.928;30.306;2022-12-20T14:45:24;23.67;;;9.13;;
41253;SDS011;26987;59.928;30.306;2022-12-20T14:47:57;21.07;;;7.93;;
41253;SDS011;26987;59.928;30.306;2022-12-20T14:50:27;21.00;;;7.97;;
41253;SDS011;26987;59.928;30.306;2022-12-20T14:52:57;17.58;;;6.82;;
41253;SDS011;26987;59.928;30.306;2022-12-20T14:55:29;19.50;;;7.80;;
41253;SDS011;26987;59.928;30.306;2022-12-20T14:58:01;17.17;;;6.73;;
41253;SDS011;26987;59.928;30.306;2022-12-20T15:00:33;21.63;;;7.53;;
41253;SDS011;26987;59.928;30.306;2022-12-20T15:03:02;17.75;;;6.57;;
41253;SDS011;26987;59.928;30.306;2022-12-20T15:05:42;16.13;;;7.05;;
41253;SDS011;26987;59.928;30.306;2022-12-20T15:08:13;19.23;;;6.78;;
41253;SDS011;26987;59.928;30.306;2022-12-20T15:10:51;22.30;;;7.77;;
41253;SDS011;26987;59.928;30.306;2022-12-20T15:13:27;21.47;;;8.30;;
41253;SDS011;26987;59.928;30.306;2022-12-20T15:15:58;19.67;;;6.70;;
41253;SDS011;26987;59.928;30.306;2022-12-20T15:18:29;22.20;;;7.67;;
41253;SDS011;26987;59.928;30.306;2022-12-20T15:20:59;17.50;;;7.23;;
41253;SDS011;26987;59.928;30.306;2022-12-20T15:23:29;17.60;;;7.17;;
41253;SDS011;26987;59.928;30.306;2022-12-20T15:25:59;19.30;;;6.80;;
41253;SDS011;26987;59.928;30.306;2022-12-20T15:28:27;22.20;;;7.43;;
41253;SDS011;26987;59.928;30.306;2022-12-20T15:30:55;20.27;;;7.17;;
41253;SDS011;26987;59.928;30.306;2022-12-20T15:33:24;17.07;;;6.73;;